Time;durP1;ratioP1;P1;durP2;ratioP2;P2;SDS_P1;SDS_P2;PMS_P1;PMS_P2;Temp;Humidity;BMP_temperature;BMP_pressure;BME280_temperature;BME280_humidity;BME280_pressure;Samples;Min_cycle;Max_cycle;Signal;HPM_P1;HPM_P2
2022/03/15 00:01:12;;;;;;;29.00;12.82;;;;;;;;;;5095843;28;20027;-82
2022/03/15 00:03:38;;;;;;;32.75;12.25;;;;;;;;;;5096355;28;20031;-82
2022/03/15 00:06:04;;;;;;;27.63;12.40;;;;;;;;;;5062819;28;20093;-83
2022/03/15 00:08:30;;;;;;;35.78;14.57;;;;;;;;;;5095982;28;20043;-83
2022/03/15 00:10:57;;;;;;;32.75;14.77;;;;;;;;;;5114088;28;20463;-83
2022/03/15 00:13:24;;;;;;;34.35;15.35;;;;;;;;;;5099831;28;20054;-82
2022/03/15 00:15:50;;;;;;;29.63;13.60;;;;;;;;;;5109046;28;20015;-82
2022/03/15 00:18:15;;;;;;;36.33;13.32;;;;;;;;;;5108072;28;20088;-82
2022/03/15 00:20:41;;;;;;;33.33;13.98;;;;;;;;;;5082989;28;20039;-82
2022/03/15 00:23:07;;;;;;;36.30;15.25;;;;;;;;;;5099705;28;20079;-82
2022/03/15 00:25:33;;;;;;;32.78;14.15;;;;;;;;;;5099666;28;20499;-82
2022/03/15 00:27:59;;;;;;;31.15;13.15;;;;;;;;;;5096462;27;20044;-81
2022/03/15 00:30:25;;;;;;;30.80;13.07;;;;;;;;;;5097298;28;20043;-82
2022/03/15 00:32:51;;;;;;;31.38;14.27;;;;;;;;;;5063066;28;20024;-82
2022/03/15 00:35:18;;;;;;;34.97;13.70;;;;;;;;;;5095851;28;20035;-82
2022/03/15 00:37:50;;;;;;;34.80;12.85;;;;;;;;;;5083404;28;20094;-82
2022/03/15 00:40:16;;;;;;;31.55;13.15;;;;;;;;;;5098794;28;20031;-82
2022/03/15 00:42:46;;;;;;;29.20;12.55;;;;;;;;;;5096577;28;20024;-82
2022/03/15 00:45:12;;;;;;;29.25;12.77;;;;;;;;;;5112307;28;20032;-81
2022/03/15 00:47:37;;;;;;;26.90;12.18;;;;;;;;;;5079570;28;20602;-82
2022/03/15 00:50:03;;;;;;;26.67;12.00;;;;;;;;;;5095722;28;20082;-82
2022/03/15 00:52:28;;;;;;;38.60;13.70;;;;;;;;;;5078860;28;20032;-82
2022/03/15 00:54:54;;;;;;;34.08;14.05;;;;;;;;;;5095912;28;20082;-81
2022/03/15 00:57:20;;;;;;;26.15;12.30;;;;;;;;;;5095725;28;20103;-81
2022/03/15 00:59:45;;;;;;;33.53;13.20;;;;;;;;;;5073741;28;20035;-81
2022/03/15 01:02:11;;;;;;;32.28;12.85;;;;;;;;;;5098636;28;20425;-82
2022/03/15 01:04:36;;;;;;;33.28;13.45;;;;;;;;;;5078852;28;20017;-81
2022/03/15 01:07:02;;;;;;;27.63;13.40;;;;;;;;;;5078644;28;20031;-81
2022/03/15 01:09:27;;;;;;;33.75;15.38;;;;;;;;;;5096752;28;20109;-82
2022/03/15 01:11:53;;;;;;;35.45;14.88;;;;;;;;;;5095554;28;20038;-81
2022/03/15 01:14:22;;;;;;;39.45;15.65;;;;;;;;;;5095240;28;20396;-82
2022/03/15 01:16:48;;;;;;;30.02;13.77;;;;;;;;;;5079213;28;20052;-83
2022/03/15 01:19:14;;;;;;;33.28;14.38;;;;;;;;;;5079000;28;20112;-81
2022/03/15 01:21:40;;;;;;;32.42;13.98;;;;;;;;;;5105889;28;20032;-81
2022/03/15 01:24:08;;;;;;;28.55;12.77;;;;;;;;;;5095472;28;20111;-82
2022/03/15 01:26:35;;;;;;;34.10;14.23;;;;;;;;;;5112075;28;20020;-82
2022/03/15 01:29:01;;;;;;;34.78;14.55;;;;;;;;;;5076455;28;20064;-82
2022/03/15 01:31:27;;;;;;;37.90;15.82;;;;;;;;;;5058089;28;20044;-82
2022/03/15 01:33:53;;;;;;;27.65;13.45;;;;;;;;;;5042004;28;20031;-82
2022/03/15 01:36:18;;;;;;;34.85;14.23;;;;;;;;;;5057915;28;20107;-82
2022/03/15 01:38:44;;;;;;;28.58;12.85;;;;;;;;;;5075853;28;20032;-82
2022/03/15 01:41:10;;;;;;;32.65;13.65;;;;;;;;;;5059201;28;20462;-81
2022/03/15 01:43:35;;;;;;;36.80;15.82;;;;;;;;;;5048506;28;20048;-82
2022/03/15 01:46:01;;;;;;;47.58;20.88;;;;;;;;;;5060228;28;20346;-82
2022/03/15 01:48:26;;;;;;;67.68;29.35;;;;;;;;;;5075682;28;20062;-82
2022/03/15 01:50:52;;;;;;;45.30;20.85;;;;;;;;;;5057597;28;20059;-81
2022/03/15 01:53:18;;;;;;;44.50;17.73;;;;;;;;;;5074543;28;20497;-81
2022/03/15 01:55:44;;;;;;;45.75;19.00;;;;;;;;;;5041587;28;20374;-81
2022/03/15 01:58:09;;;;;;;47.50;20.80;;;;;;;;;;5041410;28;20032;-81
2022/03/15 02:00:35;;;;;;;50.38;22.83;;;;;;;;;;5042852;28;20025;-82
2022/03/15 02:03:02;;;;;;;53.08;23.52;;;;;;;;;;5090650;28;20080;-81
2022/03/15 02:05:28;;;;;;;60.58;22.77;;;;;;;;;;5087638;28;20037;-81
2022/03/15 02:07:53;;;;;;;50.22;20.33;;;;;;;;;;5068083;28;20476;-81
2022/03/15 02:10:21;;;;;;;41.33;17.73;;;;;;;;;;5084794;28;20134;-80
2022/03/15 02:12:46;;;;;;;38.03;17.60;;;;;;;;;;5075648;28;20025;-82
2022/03/15 02:15:12;;;;;;;40.88;17.65;;;;;;;;;;5073859;28;20035;-82
2022/03/15 02:17:39;;;;;;;46.28;18.02;;;;;;;;;;5059336;28;20357;-82
2022/03/15 02:20:08;;;;;;;43.08;16.45;;;;;;;;;;5057396;28;20040;-82
2022/03/15 02:22:34;;;;;;;43.08;17.75;;;;;;;;;;5057442;28;20036;-83
2022/03/15 02:25:00;;;;;;;43.42;19.48;;;;;;;;;;5073612;28;20496;-81
2022/03/15 02:27:26;;;;;;;45.53;19.08;;;;;;;;;;5067029;28;20470;-82
2022/03/15 02:29:51;;;;;;;42.28;18.63;;;;;;;;;;5074067;28;20043;-82
2022/03/15 02:32:17;;;;;;;47.30;18.70;;;;;;;;;;5073505;28;20028;-82
2022/03/15 02:34:44;;;;;;;49.95;20.08;;;;;;;;;;5040420;28;20362;-83
2022/03/15 02:37:10;;;;;;;46.08;20.33;;;;;;;;;;5073540;28;20052;-82
2022/03/15 02:39:36;;;;;;;46.30;19.42;;;;;;;;;;5056817;28;20094;-82
2022/03/15 02:42:02;;;;;;;46.90;20.08;;;;;;;;;;5074604;28;20032;-82
2022/03/15 02:44:28;;;;;;;47.00;20.73;;;;;;;;;;5073785;28;20066;-81
2022/03/15 02:46:53;;;;;;;48.42;20.20;;;;;;;;;;5057077;28;20091;-82
2022/03/15 02:49:19;;;;;;;50.38;21.15;;;;;;;;;;5062526;28;20035;-82
2022/03/15 02:51:45;;;;;;;57.78;23.45;;;;;;;;;;5057314;28;20040;-82
2022/03/15 02:54:11;;;;;;;56.42;23.77;;;;;;;;;;5039888;28;20039;-82
2022/03/15 02:56:42;;;;;;;58.90;25.25;;;;;;;;;;5073222;28;20036;-83
2022/03/15 02:59:14;;;;;;;60.03;23.75;;;;;;;;;;5057219;28;20036;-83
2022/03/15 03:01:41;;;;;;;57.00;22.25;;;;;;;;;;5057085;28;20037;-82
2022/03/15 03:04:08;;;;;;;70.97;27.90;;;;;;;;;;5056179;28;20028;-81
2022/03/15 03:06:34;;;;;;;75.18;28.33;;;;;;;;;;5056737;28;20048;-81
2022/03/15 03:08:59;;;;;;;69.93;30.00;;;;;;;;;;5039727;28;20544;-81
2022/03/15 03:11:25;;;;;;;66.50;28.55;;;;;;;;;;5080674;28;20123;-82
2022/03/15 03:13:55;;;;;;;67.78;28.40;;;;;;;;;;5039743;28;20082;-82
2022/03/15 03:16:21;;;;;;;69.20;28.08;;;;;;;;;;5073153;28;20029;-83
2022/03/15 03:18:47;;;;;;;76.70;30.65;;;;;;;;;;5056284;28;20434;-82
2022/03/15 03:21:12;;;;;;;63.05;27.70;;;;;;;;;;5072896;28;20361;-82
2022/03/15 03:23:38;;;;;;;63.63;28.95;;;;;;;;;;5072920;28;20123;-82
2022/03/15 03:26:04;;;;;;;67.88;29.38;;;;;;;;;;5073614;28;20355;-82
2022/03/15 03:28:36;;;;;;;66.78;29.20;;;;;;;;;;5072930;28;20054;-81
2022/03/15 03:31:03;;;;;;;65.95;28.98;;;;;;;;;;5072669;28;20040;-81
2022/03/15 03:33:29;;;;;;;86.32;35.60;;;;;;;;;;5061860;28;20127;-83
2022/03/15 03:35:55;;;;;;;87.50;34.90;;;;;;;;;;5079077;28;20056;-82
2022/03/15 03:38:20;;;;;;;66.55;27.92;;;;;;;;;;5039859;28;20024;-82
2022/03/15 03:40:46;;;;;;;56.70;25.70;;;;;;;;;;5055882;28;20027;-82
2022/03/15 03:43:11;;;;;;;62.47;26.08;;;;;;;;;;5039613;28;20043;-82
2022/03/15 03:45:38;;;;;;;67.15;27.10;;;;;;;;;;5056244;28;20025;-82
2022/03/15 03:48:04;;;;;;;61.03;25.05;;;;;;;;;;5075690;28;20032;-81
2022/03/15 03:50:30;;;;;;;61.05;26.58;;;;;;;;;;5060154;28;20040;-81
2022/03/15 03:52:55;;;;;;;62.78;27.17;;;;;;;;;;5059695;28;20036;-81
2022/03/15 03:55:21;;;;;;;60.83;25.45;;;;;;;;;;5050143;28;20430;-82
2022/03/15 03:57:47;;;;;;;50.15;21.17;;;;;;;;;;5043231;28;20086;-81
2022/03/15 04:00:13;;;;;;;45.05;19.70;;;;;;;;;;5076601;28;20052;-82
2022/03/15 04:02:39;;;;;;;38.65;17.67;;;;;;;;;;5043279;28;20445;-82
2022/03/15 04:05:05;;;;;;;44.00;18.33;;;;;;;;;;5077012;28;20035;-82
2022/03/15 04:07:31;;;;;;;39.50;18.50;;;;;;;;;;5042876;28;20029;-81
2022/03/15 04:09:56;;;;;;;38.58;17.83;;;;;;;;;;5043643;28;20082;-82
2022/03/15 04:12:23;;;;;;;40.15;15.80;;;;;;;;;;5076289;28;20112;-81
2022/03/15 04:14:49;;;;;;;38.75;14.50;;;;;;;;;;5079751;28;20032;-81
2022/03/15 04:17:15;;;;;;;40.55;16.73;;;;;;;;;;5094623;28;20032;-82
2022/03/15 04:19:40;;;;;;;35.53;15.85;;;;;;;;;;5044925;28;20135;-82
2022/03/15 04:22:06;;;;;;;36.88;15.15;;;;;;;;;;5060377;28;20381;-82
2022/03/15 04:24:32;;;;;;;35.22;15.20;;;;;;;;;;5043131;28;20506;-82
2022/03/15 04:26:59;;;;;;;34.72;15.13;;;;;;;;;;5075488;28;20039;-82
2022/03/15 04:29:28;;;;;;;37.67;15.57;;;;;;;;;;5059941;28;20032;-82
2022/03/15 04:31:54;;;;;;;31.08;14.73;;;;;;;;;;5042688;28;20032;-81
2022/03/15 04:34:19;;;;;;;33.90;16.30;;;;;;;;;;5042456;28;20059;-82
2022/03/15 04:36:45;;;;;;;38.53;17.25;;;;;;;;;;5042477;28;20373;-81
2022/03/15 04:39:11;;;;;;;56.13;22.35;;;;;;;;;;5065427;28;20056;-82
2022/03/15 04:41:37;;;;;;;57.67;21.85;;;;;;;;;;5059233;28;20417;-82
2022/03/15 04:44:03;;;;;;;52.92;22.25;;;;;;;;;;5059202;28;20024;-82
2022/03/15 04:46:28;;;;;;;56.05;20.55;;;;;;;;;;5075658;28;20090;-82
2022/03/15 04:48:55;;;;;;;46.28;19.08;;;;;;;;;;5075574;28;20043;-82
2022/03/15 04:51:20;;;;;;;41.30;17.38;;;;;;;;;;5059500;28;20039;-82
2022/03/15 04:53:47;;;;;;;52.15;20.25;;;;;;;;;;5060221;28;20024;-81
2022/03/15 04:56:12;;;;;;;45.47;18.50;;;;;;;;;;5062394;28;20078;-81
2022/03/15 04:58:38;;;;;;;45.95;18.15;;;;;;;;;;5074706;28;20028;-82
2022/03/15 05:01:03;;;;;;;46.33;18.13;;;;;;;;;;5090791;28;20024;-82
2022/03/15 05:03:29;;;;;;;43.13;17.52;;;;;;;;;;5089947;28;20048;-83
2022/03/15 05:05:54;;;;;;;52.13;18.35;;;;;;;;;;5065832;28;20029;-83
2022/03/15 05:08:20;;;;;;;48.58;19.48;;;;;;;;;;5097408;28;20020;-82
2022/03/15 05:13:31;;;;;;;47.17;18.75;;;;;;;;;;5088222;28;20421;-81
2022/03/15 05:15:58;;;;;;;49.83;21.42;;;;;;;;;;5050842;28;20096;-81
2022/03/15 05:18:24;;;;;;;44.88;20.67;;;;;;;;;;5059916;28;20135;-81
2022/03/15 05:20:51;;;;;;;46.03;19.90;;;;;;;;;;5078520;28;20173;-81
2022/03/15 05:23:17;;;;;;;63.53;25.10;;;;;;;;;;5097975;28;20016;-82
2022/03/15 05:25:44;;;;;;;82.93;31.38;;;;;;;;;;5082936;28;20079;-82
2022/03/15 05:28:09;;;;;;;119.55;45.83;;;;;;;;;;5058294;28;20474;-84
2022/03/15 05:30:37;;;;;;;132.07;49.15;;;;;;;;;;5043326;28;20028;-88
2022/03/15 05:33:03;;;;;;;136.77;49.00;;;;;;;;;;5042824;28;20021;-87
2022/03/15 05:35:28;;;;;;;126.88;45.65;;;;;;;;;;5063419;28;20350;-86
2022/03/15 05:37:54;;;;;;;116.43;43.17;;;;;;;;;;5041793;28;20024;-82
2022/03/15 05:40:20;;;;;;;116.53;43.00;;;;;;;;;;5045693;28;20202;-85
2022/03/15 05:42:46;;;;;;;100.30;38.58;;;;;;;;;;5049285;28;20028;-85
2022/03/15 05:45:12;;;;;;;93.70;36.97;;;;;;;;;;5036431;28;20036;-83
2022/03/15 05:47:41;;;;;;;80.50;34.15;;;;;;;;;;5083162;28;20025;-83
2022/03/15 05:50:07;;;;;;;80.63;34.15;;;;;;;;;;5079581;28;20029;-84
2022/03/15 05:52:33;;;;;;;75.00;30.98;;;;;;;;;;5068465;28;20042;-86
2022/03/15 05:55:01;;;;;;;72.60;29.15;;;;;;;;;;5074806;28;20431;-81
2022/03/15 05:57:28;;;;;;;80.20;33.88;;;;;;;;;;5147097;22;20032;-86
2022/03/15 05:59:53;;;;;;;82.60;33.03;;;;;;;;;;5119305;27;20047;-84
2022/03/15 06:02:19;;;;;;;84.45;32.63;;;;;;;;;;5102185;28;20038;-84
2022/03/15 06:04:45;;;;;;;85.18;33.50;;;;;;;;;;5109753;28;20096;-83
2022/03/15 06:07:10;;;;;;;118.13;38.70;;;;;;;;;;5080316;28;20027;-84
2022/03/15 06:09:36;;;;;;;135.27;42.03;;;;;;;;;;5088839;28;20110;-83
2022/03/15 06:12:03;;;;;;;112.75;35.50;;;;;;;;;;5095057;28;20067;-85
2022/03/15 06:14:28;;;;;;;104.10;35.95;;;;;;;;;;5120625;27;20354;-83
2022/03/15 06:16:54;;;;;;;62.00;27.45;;;;;;;;;;5129141;27;20030;-83
2022/03/15 06:19:20;;;;;;;60.60;25.13;;;;;;;;;;5106587;27;20039;-83
2022/03/15 06:21:45;;;;;;;57.65;24.65;;;;;;;;;;5128644;27;20527;-86
2022/03/15 06:24:11;;;;;;;60.35;26.10;;;;;;;;;;5113064;27;20023;-84
2022/03/15 06:26:37;;;;;;;59.88;26.73;;;;;;;;;;5110692;28;20055;-85
2022/03/15 06:29:03;;;;;;;49.72;21.30;;;;;;;;;;5116356;27;20043;-83
2022/03/15 06:31:30;;;;;;;59.28;23.45;;;;;;;;;;5124532;28;20027;-87
2022/03/15 06:33:55;;;;;;;57.50;22.98;;;;;;;;;;5093036;27;20404;-83
2022/03/15 06:36:21;;;;;;;55.85;23.40;;;;;;;;;;5112728;27;20073;-85
2022/03/15 06:38:47;;;;;;;60.53;26.25;;;;;;;;;;5110854;28;20031;-86
2022/03/15 06:41:13;;;;;;;62.67;26.50;;;;;;;;;;5112612;22;20081;-84
2022/03/15 06:43:39;;;;;;;72.07;28.08;;;;;;;;;;5112689;28;20121;-83
2022/03/15 06:46:13;;;;;;;68.70;28.35;;;;;;;;;;5094242;28;20448;-83
2022/03/15 06:48:45;;;;;;;75.20;30.38;;;;;;;;;;5099645;28;20039;-83
2022/03/15 06:51:35;;;;;;;72.43;32.20;;;;;;;;;;5090453;28;20058;-84
2022/03/15 06:56:53;;;;;;;92.50;40.13;;;;;;;;;;5369005;22;20059;-86
2022/03/15 06:59:19;;;;;;;111.25;44.55;;;;;;;;;;5062104;28;20043;-80
2022/03/15 07:02:13;;;;;;;109.97;45.92;;;;;;;;;;5084741;28;20032;-85
2022/03/15 07:07:29;;;;;;;86.60;37.25;;;;;;;;;;5054464;28;20028;-85
2022/03/15 07:09:54;;;;;;;85.30;36.58;;;;;;;;;;5061818;28;20082;-86
2022/03/15 07:12:21;;;;;;;88.10;40.88;;;;;;;;;;5078348;28;20037;-83
2022/03/15 07:14:47;;;;;;;88.50;37.80;;;;;;;;;;5075700;28;20033;-83
2022/03/15 07:17:13;;;;;;;66.72;31.85;;;;;;;;;;5056773;28;20466;-82
2022/03/15 07:19:39;;;;;;;70.32;34.15;;;;;;;;;;5077045;28;20143;-84
2022/03/15 07:22:08;;;;;;;75.80;37.33;;;;;;;;;;5072906;28;20053;-81
2022/03/15 07:24:34;;;;;;;68.75;33.17;;;;;;;;;;5075376;28;20071;-80
2022/03/15 07:27:01;;;;;;;79.03;37.33;;;;;;;;;;5037924;28;20041;-81
2022/03/15 07:29:26;;;;;;;73.47;35.00;;;;;;;;;;5065939;28;20036;-81
2022/03/15 07:31:54;;;;;;;72.80;32.45;;;;;;;;;;5062630;28;20033;-81
2022/03/15 07:34:22;;;;;;;69.57;32.40;;;;;;;;;;5076598;28;20039;-83
2022/03/15 07:37:26;;;;;;;62.30;30.10;;;;;;;;;;5068821;28;20040;-76
2022/03/15 07:39:52;;;;;;;62.83;31.27;;;;;;;;;;5033492;28;20044;-80
2022/03/15 07:42:19;;;;;;;51.95;27.85;;;;;;;;;;5044828;28;20040;-84
2022/03/15 07:45:05;;;;;;;58.63;29.65;;;;;;;;;;5069726;28;20056;-86
2022/03/15 07:47:31;;;;;;;60.83;30.92;;;;;;;;;;5039939;28;20037;-86
2022/03/15 07:49:59;;;;;;;62.38;29.65;;;;;;;;;;5030865;28;20025;-86
2022/03/15 07:52:26;;;;;;;57.55;28.95;;;;;;;;;;5071447;28;20028;-82
2022/03/15 07:55:00;;;;;;;57.47;31.20;;;;;;;;;;5046930;28;20036;-83
2022/03/15 07:57:25;;;;;;;59.55;31.45;;;;;;;;;;5069263;28;20045;-85
2022/03/15 08:03:15;;;;;;;67.00;33.03;;;;;;;;;;5031548;28;20060;-89
2022/03/15 08:05:46;;;;;;;75.97;44.75;;;;;;;;;;5055367;28;20064;-88
2022/03/15 08:09:01;;;;;;;67.90;33.33;;;;;;;;;;5066519;22;20408;-86
2022/03/15 08:12:08;;;;;;;71.45;33.33;;;;;;;;;;5114441;28;20085;-83
2022/03/15 08:18:06;;;;;;;65.95;32.33;;;;;;;;;;5102552;22;20052;-81
2022/03/15 08:20:33;;;;;;;53.47;28.90;;;;;;;;;;5074821;28;20070;-87
2022/03/15 08:26:38;;;;;;;49.95;24.80;;;;;;;;;;5015767;28;20037;-86
2022/03/15 08:32:53;;;;;;;51.80;25.30;;;;;;;;;;5106619;22;20077;-84
2022/03/15 08:35:37;;;;;;;56.10;28.27;;;;;;;;;;5048655;22;20055;-84
2022/03/15 08:38:03;;;;;;;51.22;27.08;;;;;;;;;;5074699;28;20123;-86
2022/03/15 08:40:32;;;;;;;56.30;28.83;;;;;;;;;;5090212;28;20031;-84
2022/03/15 08:42:58;;;;;;;53.40;29.15;;;;;;;;;;5119664;28;20428;-86
2022/03/15 08:45:23;;;;;;;80.20;43.95;;;;;;;;;;5103462;28;20027;-85
2022/03/15 08:48:08;;;;;;;56.97;30.45;;;;;;;;;;5108718;28;20178;-87
2022/03/15 08:50:33;;;;;;;68.15;34.67;;;;;;;;;;5098040;28;20092;-86
2022/03/15 08:52:59;;;;;;;83.43;45.22;;;;;;;;;;5118093;28;20031;-85
2022/03/15 08:55:26;;;;;;;65.18;35.70;;;;;;;;;;5066541;28;20038;-84
2022/03/15 08:57:52;;;;;;;72.57;37.42;;;;;;;;;;5103385;28;20174;-87
2022/03/15 09:00:17;;;;;;;68.85;36.63;;;;;;;;;;5100309;28;20114;-87
2022/03/15 09:02:43;;;;;;;64.30;33.03;;;;;;;;;;5086648;28;20035;-86
2022/03/15 09:05:11;;;;;;;63.67;32.20;;;;;;;;;;5066746;28;20035;-82
2022/03/15 09:07:36;;;;;;;69.90;33.45;;;;;;;;;;5098479;28;20035;-82
2022/03/15 09:10:03;;;;;;;59.50;32.20;;;;;;;;;;5105961;27;20118;-84
2022/03/15 09:12:28;;;;;;;57.97;31.33;;;;;;;;;;5088243;28;20194;-88
2022/03/15 09:14:54;;;;;;;71.45;34.95;;;;;;;;;;5083264;28;20063;-81
2022/03/15 09:17:20;;;;;;;65.05;32.30;;;;;;;;;;5121832;27;20072;-84
2022/03/15 09:19:45;;;;;;;48.88;24.30;;;;;;;;;;5125673;27;20114;-85
2022/03/15 09:22:11;;;;;;;53.90;26.92;;;;;;;;;;5121674;27;20039;-85
2022/03/15 09:24:37;;;;;;;51.63;25.10;;;;;;;;;;5122519;27;20474;-88
2022/03/15 09:27:04;;;;;;;49.45;24.88;;;;;;;;;;5113173;27;20046;-88
2022/03/15 09:29:29;;;;;;;50.10;25.38;;;;;;;;;;5120163;28;20038;-88
2022/03/15 09:32:02;;;;;;;52.00;24.67;;;;;;;;;;5082431;28;20036;-87
2022/03/15 09:34:30;;;;;;;57.65;28.10;;;;;;;;;;5125864;28;20027;-85
2022/03/15 09:36:57;;;;;;;59.50;27.70;;;;;;;;;;5127947;28;20032;-83
2022/03/15 09:39:23;;;;;;;57.97;28.13;;;;;;;;;;5085757;28;20023;-83
2022/03/15 09:41:58;;;;;;;50.33;24.55;;;;;;;;;;5099564;28;20472;-86
2022/03/15 09:44:26;;;;;;;63.88;27.98;;;;;;;;;;5087832;28;20034;-84
2022/03/15 09:46:52;;;;;;;58.42;23.67;;;;;;;;;;5074119;27;20180;-84
2022/03/15 09:49:20;;;;;;;56.15;26.65;;;;;;;;;;5123775;27;20038;-83
2022/03/15 09:51:46;;;;;;;53.17;26.63;;;;;;;;;;5104235;27;20135;-84
2022/03/15 09:54:13;;;;;;;54.70;26.05;;;;;;;;;;5123564;27;20023;-84
2022/03/15 09:56:41;;;;;;;56.03;25.63;;;;;;;;;;5097774;28;20136;-84
2022/03/15 09:59:12;;;;;;;59.25;26.38;;;;;;;;;;5084468;28;20027;-84
2022/03/15 10:01:38;;;;;;;53.40;26.15;;;;;;;;;;5084990;28;20062;-86
2022/03/15 10:04:04;;;;;;;64.20;27.65;;;;;;;;;;5103394;28;20468;-84
2022/03/15 10:06:30;;;;;;;73.93;29.83;;;;;;;;;;5097756;28;20053;-83
2022/03/15 10:08:55;;;;;;;48.50;23.45;;;;;;;;;;5082200;28;20038;-83
2022/03/15 10:11:23;;;;;;;55.45;25.10;;;;;;;;;;5080719;28;20068;-83
2022/03/15 10:13:49;;;;;;;59.33;26.83;;;;;;;;;;5099321;28;20028;-83
2022/03/15 10:16:15;;;;;;;58.38;24.65;;;;;;;;;;5100962;28;20410;-83
2022/03/15 10:18:51;;;;;;;49.25;22.52;;;;;;;;;;5082949;28;20079;-83
2022/03/15 10:21:37;;;;;;;65.07;26.58;;;;;;;;;;5106981;28;20035;-86
2022/03/15 10:24:03;;;;;;;47.05;21.45;;;;;;;;;;5121109;28;20043;-87
2022/03/15 10:26:29;;;;;;;53.13;21.92;;;;;;;;;;5068769;28;20049;-87
2022/03/15 10:28:57;;;;;;;34.08;18.15;;;;;;;;;;5083369;28;20039;-83
2022/03/15 10:31:23;;;;;;;46.55;18.80;;;;;;;;;;5081699;28;20024;-86
2022/03/15 10:33:53;;;;;;;40.58;20.30;;;;;;;;;;5068045;28;20069;-83
2022/03/15 10:36:40;;;;;;;43.17;21.23;;;;;;;;;;5083421;28;20039;-86
2022/03/15 10:39:07;;;;;;;47.67;23.58;;;;;;;;;;5086936;28;20354;-82
2022/03/15 10:41:59;;;;;;;50.72;24.58;;;;;;;;;;5072169;28;20044;-87
2022/03/15 10:44:25;;;;;;;32.28;15.40;;;;;;;;;;5097757;28;20043;-81
2022/03/15 10:47:12;;;;;;;28.92;14.93;;;;;;;;;;5105639;22;20203;-85
2022/03/15 10:49:47;;;;;;;33.35;16.67;;;;;;;;;;5060799;28;20629;-83
2022/03/15 10:52:13;;;;;;;31.45;15.65;;;;;;;;;;5091728;28;20036;-82
2022/03/15 10:54:40;;;;;;;35.15;17.15;;;;;;;;;;5092204;28;20043;-89
2022/03/15 10:57:06;;;;;;;33.80;16.60;;;;;;;;;;5075525;28;20035;-88
2022/03/15 10:59:31;;;;;;;34.88;17.38;;;;;;;;;;5086173;22;20011;-89
2022/03/15 11:02:00;;;;;;;31.92;15.48;;;;;;;;;;5081963;28;20723;-85
2022/03/15 11:04:26;;;;;;;41.25;21.55;;;;;;;;;;5073229;28;20016;-80
2022/03/15 11:06:52;;;;;;;33.58;16.50;;;;;;;;;;5090437;28;20031;-89
2022/03/15 11:13:31;;;;;;;28.10;13.98;;;;;;;;;;4993457;28;20061;-82
2022/03/15 11:15:56;;;;;;;27.65;13.73;;;;;;;;;;4932849;29;20049;-81
2022/03/15 11:18:45;;;;;;;32.25;12.68;;;;;;;;;;4981986;22;20034;-83
2022/03/15 11:21:11;;;;;;;31.45;14.30;;;;;;;;;;5056945;28;20053;-84
2022/03/15 11:23:39;;;;;;;26.35;12.98;;;;;;;;;;5055428;28;20119;-85
2022/03/15 11:26:06;;;;;;;25.13;12.90;;;;;;;;;;5019026;28;20327;-80
2022/03/15 11:28:37;;;;;;;29.67;12.73;;;;;;;;;;5034148;28;20025;-80
2022/03/15 11:31:09;;;;;;;32.03;12.73;;;;;;;;;;5052410;28;20033;-83
2022/03/15 11:33:35;;;;;;;30.83;14.77;;;;;;;;;;5031789;28;20091;-81
2022/03/15 11:39:24;;;;;;;35.33;16.10;;;;;;;;;;5080245;22;20141;-80
2022/03/15 11:45:39;;;;;;;;;;;;;;;;;;;;;
2022/03/15 11:48:08;;;;;;;32.30;14.95;;;;;;;;;;5083329;28;20033;-79
2022/03/15 11:50:52;;;;;;;55.22;25.50;;;;;;;;;;5068461;28;20764;-83
2022/03/15 11:53:27;;;;;;;35.60;17.38;;;;;;;;;;5069337;28;20029;-81
2022/03/15 11:56:27;;;;;;;44.58;20.77;;;;;;;;;;5053775;28;20036;-85
2022/03/15 11:58:54;;;;;;;43.95;21.88;;;;;;;;;;5093195;28;20039;-85
2022/03/15 12:01:21;;;;;;;31.35;14.48;;;;;;;;;;5114659;28;20035;-81
2022/03/15 12:03:47;;;;;;;45.50;20.25;;;;;;;;;;5077625;28;20039;-83
2022/03/15 12:06:23;;;;;;;26.75;13.68;;;;;;;;;;5109354;28;20031;-84
2022/03/15 12:08:59;;;;;;;34.80;16.85;;;;;;;;;;5112983;28;20024;-82
2022/03/15 12:11:35;;;;;;;30.05;13.85;;;;;;;;;;5115285;28;20107;-83
2022/03/15 12:14:16;;;;;;;28.20;13.32;;;;;;;;;;5078352;28;20090;-81
2022/03/15 12:16:49;;;;;;;37.88;15.85;;;;;;;;;;5074206;28;20021;-80
2022/03/15 12:19:35;;;;;;;36.67;17.17;;;;;;;;;;5076490;28;20064;-81
2022/03/15 12:22:02;;;;;;;34.15;15.02;;;;;;;;;;5075333;28;20373;-80
2022/03/15 12:24:58;;;;;;;49.38;17.90;;;;;;;;;;5081047;22;20497;-79
2022/03/15 12:27:24;;;;;;;58.30;19.40;;;;;;;;;;5052005;28;20347;-78
2022/03/15 12:29:57;;;;;;;26.52;14.13;;;;;;;;;;5057009;28;20033;-78
2022/03/15 12:32:32;;;;;;;28.10;12.60;;;;;;;;;;5033767;28;20036;-78
2022/03/15 12:34:58;;;;;;;28.33;13.63;;;;;;;;;;5034564;28;20387;-80
2022/03/15 12:37:34;;;;;;;32.15;14.15;;;;;;;;;;5031499;28;20033;-83
2022/03/15 12:40:03;;;;;;;35.35;16.33;;;;;;;;;;5039751;28;20494;-82
2022/03/15 12:42:29;;;;;;;28.63;14.13;;;;;;;;;;5019675;28;20025;-83
2022/03/15 12:45:14;;;;;;;36.83;14.98;;;;;;;;;;5036549;28;20060;-82
2022/03/15 12:47:44;;;;;;;28.58;13.02;;;;;;;;;;5019755;28;20049;-84
2022/03/15 12:50:13;;;;;;;32.15;14.85;;;;;;;;;;5017302;28;20181;-84
2022/03/15 12:53:12;;;;;;;34.42;14.95;;;;;;;;;;5035510;28;20033;-85
2022/03/15 12:55:41;;;;;;;24.38;13.05;;;;;;;;;;5032559;28;20041;-86
2022/03/15 12:58:10;;;;;;;34.05;17.00;;;;;;;;;;5019777;28;20048;-86
2022/03/15 13:00:37;;;;;;;28.10;13.27;;;;;;;;;;5019234;28;20040;-84
2022/03/15 13:03:05;;;;;;;34.67;12.65;;;;;;;;;;5037169;28;20029;-85
2022/03/15 13:05:30;;;;;;;27.05;13.02;;;;;;;;;;5036046;28;20052;-82
2022/03/15 13:07:57;;;;;;;30.33;13.13;;;;;;;;;;5019308;28;20447;-87
2022/03/15 13:10:36;;;;;;;28.77;13.93;;;;;;;;;;5038871;28;20088;-88
2022/03/15 13:13:02;;;;;;;28.63;13.43;;;;;;;;;;5003798;28;20030;-85
2022/03/15 13:15:28;;;;;;;28.38;13.35;;;;;;;;;;5002695;28;20443;-83
2022/03/15 13:17:55;;;;;;;26.75;13.63;;;;;;;;;;5018807;28;20040;-84
2022/03/15 13:20:36;;;;;;;25.33;12.60;;;;;;;;;;5018525;28;20024;-85
2022/03/15 13:23:05;;;;;;;;;;;;;;;;;;5038245;28;20032;-84
2022/03/15 13:25:43;;;;;;;30.27;13.55;;;;;;;;;;5036269;28;19974;-84
2022/03/15 13:28:44;;;;;;;26.23;12.57;;;;;;;;;;5034393;28;20026;-84
2022/03/15 13:31:13;;;;;;;29.88;13.23;;;;;;;;;;5015689;28;20501;-83
2022/03/15 13:33:39;;;;;;;27.95;12.90;;;;;;;;;;5018560;28;20032;-84
2022/03/15 13:36:06;;;;;;;27.15;12.98;;;;;;;;;;5036095;28;20025;-84
2022/03/15 13:38:34;;;;;;;25.45;12.77;;;;;;;;;;5036093;28;20116;-84
2022/03/15 13:41:00;;;;;;;65.60;26.20;;;;;;;;;;5022545;28;20033;-83
2022/03/15 13:43:27;;;;;;;40.78;19.08;;;;;;;;;;5019367;28;20030;-82
2022/03/15 13:45:54;;;;;;;32.25;12.98;;;;;;;;;;5017624;28;20025;-80
2022/03/15 13:48:29;;;;;;;37.28;17.48;;;;;;;;;;5033860;28;20344;-82
2022/03/15 13:51:00;;;;;;;52.80;25.25;;;;;;;;;;5048872;28;20037;-83
2022/03/15 13:53:25;;;;;;;44.35;17.80;;;;;;;;;;5033084;28;20498;-85
2022/03/15 13:55:53;;;;;;;35.55;14.35;;;;;;;;;;5016643;28;20042;-85
2022/03/15 13:58:26;;;;;;;25.52;12.13;;;;;;;;;;5033674;28;20036;-85
2022/03/15 14:01:05;;;;;;;27.55;12.23;;;;;;;;;;5035715;28;20034;-84
2022/03/15 14:03:32;;;;;;;52.17;22.52;;;;;;;;;;5002092;28;20032;-85
2022/03/15 14:06:08;;;;;;;40.67;18.92;;;;;;;;;;5017749;28;20033;-85
2022/03/15 14:08:48;;;;;;;28.67;14.05;;;;;;;;;;5021723;28;20033;-87
2022/03/15 14:11:15;;;;;;;31.85;14.63;;;;;;;;;;5018242;28;20025;-85
2022/03/15 14:13:56;;;;;;;28.70;14.23;;;;;;;;;;5035972;28;20092;-85
2022/03/15 14:16:32;;;;;;;32.58;11.57;;;;;;;;;;5034301;28;20026;-87
2022/03/15 14:19:00;;;;;;;30.83;13.70;;;;;;;;;;5017945;28;20025;-86
2022/03/15 14:21:26;;;;;;;24.17;11.15;;;;;;;;;;5037413;28;20101;-88
2022/03/15 14:23:55;;;;;;;25.55;12.68;;;;;;;;;;5003479;28;20032;-86
2022/03/15 14:26:29;;;;;;;24.75;11.82;;;;;;;;;;5017427;28;20029;-86
2022/03/15 14:28:56;;;;;;;27.55;12.27;;;;;;;;;;5018556;28;20507;-86
2022/03/15 14:31:28;;;;;;;52.10;25.55;;;;;;;;;;5017570;28;20355;-84
2022/03/15 14:34:00;;;;;;;37.30;17.73;;;;;;;;;;5033852;28;20072;-83
2022/03/15 14:36:33;;;;;;;28.08;13.13;;;;;;;;;;5037985;28;20025;-87
2022/03/15 14:39:13;;;;;;;28.08;12.25;;;;;;;;;;5073365;28;20029;-86
2022/03/15 14:41:39;;;;;;;25.45;11.98;;;;;;;;;;5057513;28;20362;-85
2022/03/15 14:44:10;;;;;;;24.25;11.30;;;;;;;;;;5056417;28;20056;-85
2022/03/15 14:46:42;;;;;;;25.10;11.98;;;;;;;;;;5057574;28;20484;-86
2022/03/15 14:49:09;;;;;;;31.98;14.35;;;;;;;;;;5075046;28;20051;-80
2022/03/15 14:51:38;;;;;;;30.20;13.45;;;;;;;;;;5062505;28;20092;-79
2022/03/15 14:54:05;;;;;;;27.63;12.55;;;;;;;;;;5042811;28;20420;-79
2022/03/15 14:56:38;;;;;;;23.45;11.45;;;;;;;;;;5056967;28;20113;-80
2022/03/15 14:59:06;;;;;;;24.27;11.63;;;;;;;;;;5056219;28;20036;-80
2022/03/15 15:01:33;;;;;;;25.20;11.98;;;;;;;;;;5057081;28;20036;-80